Time;durP1;ratioP1;P1;durP2;ratioP2;P2;SDS_P1;SDS_P2;PMS_P1;PMS_P2;Temp;Humidity;BMP_temperature;BMP_pressure;BME280_temperature;BME280_humidity;BME280_pressure;Samples;Min_cycle;Max_cycle;Signal;HPM_P1;HPM_P2
2022/05/26 00:02:14;;;;;;;3.47;2.17;;;15.00;99.90;;;;;;5030255;28;20211;-70
2022/05/26 00:04:58;;;;;;;1.97;1.87;;;15.00;99.90;;;;;;5028476;28;20211;-70
2022/05/26 00:07:42;;;;;;;5.73;2.07;;;15.00;99.90;;;;;;5028374;28;20222;-71
2022/05/26 00:10:27;;;;;;;5.37;2.50;;;15.00;99.90;;;;;;5028660;28;20571;-70
2022/05/26 00:13:10;;;;;;;4.23;2.47;;;14.90;99.90;;;;;;5026049;28;20183;-71
2022/05/26 00:15:55;;;;;;;8.30;2.73;;;15.00;99.90;;;;;;5025691;28;20187;-70
2022/05/26 00:18:39;;;;;;;3.63;2.40;;;15.00;99.90;;;;;;5031123;28;20561;-70
2022/05/26 00:21:23;;;;;;;6.07;2.57;;;15.00;99.90;;;;;;5022607;28;20265;-70
2022/05/26 00:24:08;;;;;;;3.87;3.10;;;15.00;99.90;;;;;;5028741;28;20230;-70
2022/05/26 00:26:52;;;;;;;7.27;3.13;;;15.00;99.90;;;;;;5026326;28;20670;-71
2022/05/26 00:29:37;;;;;;;3.43;3.10;;;14.90;99.90;;;;;;5022934;28;20203;-71
2022/05/26 00:32:21;;;;;;;7.00;3.30;;;14.90;99.90;;;;;;5027734;28;20191;-70
2022/05/26 00:35:06;;;;;;;5.00;3.03;;;14.90;99.90;;;;;;5029665;28;20223;-70
2022/05/26 00:37:50;;;;;;;5.70;3.13;;;14.90;99.90;;;;;;5027860;28;20211;-72
2022/05/26 00:40:35;;;;;;;5.00;3.50;;;14.90;99.90;;;;;;5026534;28;20243;-72
2022/05/26 00:43:20;;;;;;;7.70;3.67;;;14.90;99.90;;;;;;5028028;28;20258;-71
2022/05/26 00:46:21;;;;;;;4.30;3.50;;;14.90;99.90;;;;;;5027543;28;20261;-72
2022/05/26 00:49:12;;;;;;;6.10;3.40;;;14.90;99.90;;;;;;5022545;28;20713;-72
2022/05/26 00:51:56;;;;;;;6.07;3.67;;;14.90;99.90;;;;;;5021867;28;20732;-72
2022/05/26 00:54:43;;;;;;;9.20;3.97;;;14.90;99.90;;;;;;5029225;28;20194;-72
2022/05/26 00:57:46;;;;;;;5.90;3.70;;;14.90;99.90;;;;;;5025145;28;20203;-72
2022/05/26 01:00:35;;;;;;;6.83;3.47;;;14.90;99.90;;;;;;5026363;28;20237;-72
2022/05/26 01:03:40;;;;;;;7.50;3.87;;;14.90;99.90;;;;;;5027279;28;20191;-72
2022/05/26 01:06:33;;;;;;;4.70;3.60;;;14.80;99.90;;;;;;5023363;28;20270;-72
2022/05/26 01:09:18;;;;;;;4.57;3.83;;;14.80;99.90;;;;;;5032635;28;20254;-72
2022/05/26 01:12:04;;;;;;;10.00;3.80;;;14.80;99.90;;;;;;5030039;28;20190;-72
2022/05/26 01:14:59;;;;;;;4.47;3.43;;;14.80;99.90;;;;;;5029016;28;20187;-71
2022/05/26 01:18:02;;;;;;;3.77;3.03;;;14.80;99.90;;;;;;5023935;28;20637;-71
2022/05/26 01:20:49;;;;;;;5.03;3.53;;;14.80;99.90;;;;;;5026787;28;20211;-71
2022/05/26 01:24:04;;;;;;;7.93;4.30;;;14.80;99.90;;;;;;5020413;28;20262;-72
2022/05/26 01:27:25;;;;;;;5.47;3.20;;;14.80;99.90;;;;;;5027640;28;20226;-72
2022/05/26 01:30:20;;;;;;;6.33;3.23;;;14.80;99.90;;;;;;5027467;28;20214;-72
2022/05/26 01:33:30;;;;;;;7.00;3.30;;;14.80;99.90;;;;;;5025311;28;20303;-72
2022/05/26 01:36:39;;;;;;;6.97;3.13;;;14.80;99.90;;;;;;5031137;28;20203;-72
2022/05/26 01:39:40;;;;;;;7.43;3.83;;;14.80;99.90;;;;;;5033286;28;20594;-71
2022/05/26 01:42:42;;;;;;;5.77;3.47;;;14.80;99.90;;;;;;5030372;28;20320;-72
2022/05/26 01:45:45;;;;;;;6.77;3.70;;;14.80;99.90;;;;;;5024711;28;20200;-73
2022/05/26 01:48:44;;;;;;;6.67;3.83;;;14.80;99.90;;;;;;5028630;28;20187;-72
2022/05/26 01:51:53;;;;;;;6.10;4.00;;;14.70;99.90;;;;;;5033128;28;20268;-70
2022/05/26 01:55:25;;;;;;;6.73;4.00;;;14.70;99.90;;;;;;5031583;28;20203;-72
2022/05/26 01:58:33;;;;;;;8.00;4.23;;;14.70;99.90;;;;;;4996015;28;20763;-72
2022/05/26 02:01:23;;;;;;;8.17;4.20;;;14.70;99.90;;;;;;5031025;28;20238;-72
2022/05/26 02:04:13;;;;;;;8.70;4.80;;;14.70;99.90;;;;;;5031368;28;20543;-72
2022/05/26 02:07:24;;;;;;;7.37;5.20;;;14.70;99.90;;;;;;5024701;28;20613;-71
2022/05/26 02:10:23;;;;;;;6.57;5.57;;;14.70;99.90;;;;;;5030304;28;20265;-72
2022/05/26 02:13:12;;;;;;;8.23;5.20;;;14.60;99.90;;;;;;5028762;28;20199;-72
2022/05/26 02:16:06;;;;;;;9.33;5.27;;;14.50;99.90;;;;;;5024376;28;20246;-72
2022/05/26 02:19:00;;;;;;;7.10;5.33;;;14.50;99.90;;;;;;5026288;28;20208;-73
2022/05/26 02:21:58;;;;;;;7.27;5.67;;;14.40;99.90;;;;;;5028636;28;20254;-71
2022/05/26 02:25:03;;;;;;;13.67;5.20;;;14.40;99.90;;;;;;5031400;28;20234;-71
2022/05/26 02:27:52;;;;;;;4.53;4.00;;;14.30;99.90;;;;;;5030287;28;20239;-71
2022/05/26 02:30:40;;;;;;;5.53;3.23;;;14.30;99.90;;;;;;5027624;28;20288;-72
2022/05/26 02:33:24;;;;;;;5.00;3.10;;;14.20;99.90;;;;;;5019614;28;20230;-71
2022/05/26 02:36:08;;;;;;;4.27;2.50;;;14.20;99.90;;;;;;5031607;28;20192;-72
2022/05/26 02:38:52;;;;;;;3.63;2.57;;;14.10;99.90;;;;;;5030110;28;20268;-73
2022/05/26 02:41:39;;;;;;;3.90;2.40;;;14.00;99.90;;;;;;5030312;28;20216;-71
2022/05/26 02:44:25;;;;;;;5.90;2.60;;;14.00;99.90;;;;;;5026223;28;20202;-72
2022/05/26 02:47:31;;;;;;;4.30;2.73;;;14.00;99.90;;;;;;5029933;28;20226;-72
2022/05/26 02:50:36;;;;;;;2.90;2.60;;;13.90;99.90;;;;;;5026410;28;20236;-72
2022/05/26 02:53:31;;;;;;;3.63;2.80;;;13.90;99.90;;;;;;5031342;28;20183;-72
2022/05/26 02:56:36;;;;;;;3.00;2.47;;;13.90;99.90;;;;;;5027451;28;20681;-72
2022/05/26 02:59:47;;;;;;;5.03;2.50;;;13.90;99.90;;;;;;5026133;28;20277;-72
2022/05/26 03:02:41;;;;;;;3.97;3.00;;;13.90;99.90;;;;;;5025271;28;20203;-72
2022/05/26 03:05:44;;;;;;;3.57;2.93;;;13.80;99.90;;;;;;5036461;28;20741;-72
2022/05/26 03:08:30;;;;;;;5.50;3.23;;;13.80;99.90;;;;;;5027679;28;20187;-72
2022/05/26 03:11:20;;;;;;;4.47;3.33;;;13.80;99.90;;;;;;5030030;28;20188;-73
2022/05/26 03:14:04;;;;;;;4.33;3.10;;;13.80;99.90;;;;;;5026166;28;20195;-72
2022/05/26 03:16:48;;;;;;;6.90;3.90;;;13.80;99.90;;;;;;5026179;28;20195;-72
2022/05/26 03:19:33;;;;;;;8.93;5.20;;;13.80;99.90;;;;;;5028949;28;20235;-71
2022/05/26 03:22:17;;;;;;;7.83;6.30;;;13.70;99.90;;;;;;5023785;28;20319;-72
2022/05/26 03:25:01;;;;;;;9.17;6.40;;;13.70;99.90;;;;;;5029913;28;20604;-72
2022/05/26 03:27:45;;;;;;;10.53;6.50;;;13.70;99.90;;;;;;5029338;28;20191;-72
2022/05/26 03:30:29;;;;;;;10.37;7.63;;;13.70;99.90;;;;;;5024419;28;20219;-72
2022/05/26 03:33:13;;;;;;;10.33;8.03;;;13.80;99.90;;;;;;5028205;28;20259;-72
2022/05/26 03:42:04;;;;;;;17.20;10.43;;;13.80;99.90;;;;;;5028338;28;20226;-73
2022/05/26 03:44:48;;;;;;;15.03;9.60;;;13.80;99.90;;;;;;5031135;28;20182;-72
2022/05/26 03:47:33;;;;;;;13.17;10.07;;;13.80;99.90;;;;;;5026764;28;20207;-72
2022/05/26 03:50:17;;;;;;;13.50;10.53;;;13.80;99.90;;;;;;5027047;28;20308;-72
2022/05/26 03:53:02;;;;;;;15.53;10.33;;;13.80;99.90;;;;;;5025952;28;20246;-71
2022/05/26 03:55:46;;;;;;;17.03;10.87;;;13.90;99.90;;;;;;5026267;28;20191;-71
2022/05/26 03:58:31;;;;;;;19.30;11.63;;;13.90;99.90;;;;;;5030427;28;20338;-72
2022/05/26 04:01:15;;;;;;;17.00;10.63;;;13.90;99.90;;;;;;5029833;28;20203;-71
2022/05/26 04:04:00;;;;;;;13.57;10.63;;;13.90;99.90;;;;;;5019767;28;20195;-72
2022/05/26 04:06:44;;;;;;;20.13;12.07;;;13.90;99.90;;;;;;5022325;28;20192;-71
2022/05/26 04:09:28;;;;;;;16.13;10.73;;;13.90;99.90;;;;;;5024433;28;20273;-72
2022/05/26 04:12:12;;;;;;;17.17;11.27;;;14.00;99.90;;;;;;5029141;28;20202;-71
2022/05/26 04:14:57;;;;;;;21.33;12.00;;;14.00;99.90;;;;;;5030373;28;20214;-71
2022/05/26 04:17:41;;;;;;;14.60;11.00;;;14.00;99.90;;;;;;5024294;28;20275;-71
2022/05/26 04:20:26;;;;;;;17.97;11.20;;;14.00;99.90;;;;;;5027570;28;20583;-71
2022/05/26 04:23:09;;;;;;;17.27;10.77;;;14.00;99.90;;;;;;5026691;28;20207;-71
2022/05/26 04:25:54;;;;;;;24.50;12.40;;;14.00;99.90;;;;;;5029432;28;20194;-72
2022/05/26 04:28:38;;;;;;;18.37;11.27;;;14.00;99.90;;;;;;5021698;28;20195;-71
2022/05/26 04:31:22;;;;;;;24.87;11.53;;;14.10;99.90;;;;;;5025210;28;20211;-72
2022/05/26 04:34:06;;;;;;;17.90;12.27;;;14.10;99.90;;;;;;5031159;28;20202;-72
2022/05/26 04:36:51;;;;;;;21.00;11.97;;;14.10;99.90;;;;;;5025567;28;20226;-71
2022/05/26 04:39:35;;;;;;;20.27;11.80;;;14.10;99.90;;;;;;5028901;28;20215;-71
2022/05/26 04:42:19;;;;;;;23.47;12.93;;;14.10;99.90;;;;;;5025915;28;20266;-71
2022/05/26 04:45:04;;;;;;;18.30;11.93;;;14.20;99.90;;;;;;5032150;28;20621;-71
2022/05/26 04:47:48;;;;;;;18.60;12.93;;;14.20;99.90;;;;;;5022564;28;20191;-71
2022/05/26 04:50:34;;;;;;;17.47;11.97;;;14.20;99.90;;;;;;5031955;28;20287;-71
2022/05/26 04:53:19;;;;;;;19.17;11.37;;;14.20;99.90;;;;;;5027792;28;20218;-72
2022/05/26 04:56:03;;;;;;;17.93;12.67;;;14.20;99.90;;;;;;5029925;28;20182;-71
2022/05/26 04:58:48;;;;;;;19.30;12.23;;;14.30;99.90;;;;;;5028558;28;20226;-71
2022/05/26 05:01:33;;;;;;;19.77;12.63;;;14.30;99.90;;;;;;5027308;28;20199;-71
2022/05/26 05:04:17;;;;;;;16.00;11.33;;;14.30;99.90;;;;;;5031832;28;20298;-72
2022/05/26 05:07:02;;;;;;;21.47;12.50;;;14.30;99.90;;;;;;5030796;28;20191;-72
2022/05/26 05:09:47;;;;;;;22.17;12.47;;;14.30;99.90;;;;;;5021705;28;20263;-72
2022/05/26 05:12:32;;;;;;;19.87;13.27;;;14.30;99.90;;;;;;5030946;28;20187;-72
2022/05/26 05:15:23;;;;;;;19.37;12.73;;;14.40;99.90;;;;;;5033778;28;20199;-72
2022/05/26 05:18:07;;;;;;;20.20;12.73;;;14.40;99.90;;;;;;5025221;28;20264;-72
2022/05/26 05:20:53;;;;;;;22.37;13.67;;;14.40;99.90;;;;;;5029462;28;20206;-72
2022/05/26 05:23:41;;;;;;;24.97;12.73;;;14.40;99.90;;;;;;5032643;28;20544;-72
2022/05/26 05:26:29;;;;;;;22.40;13.17;;;14.50;99.90;;;;;;5030554;28;20687;-72
2022/05/26 05:29:15;;;;;;;21.80;12.43;;;14.50;99.90;;;;;;5027991;28;20266;-72
2022/05/26 05:32:08;;;;;;;21.77;11.27;;;14.50;99.90;;;;;;5030894;28;20211;-72
2022/05/26 05:35:00;;;;;;;24.10;11.70;;;14.50;99.90;;;;;;5029028;28;20200;-72
2022/05/26 05:37:45;;;;;;;20.83;10.63;;;14.60;99.90;;;;;;5038186;28;20198;-72
2022/05/26 05:40:30;;;;;;;20.97;11.40;;;14.60;99.90;;;;;;5034420;28;20293;-72
2022/05/26 05:43:14;;;;;;;19.93;11.17;;;14.60;99.90;;;;;;5028373;28;20222;-73
2022/05/26 05:45:58;;;;;;;22.37;10.43;;;14.70;99.90;;;;;;5032027;28;20187;-72
2022/05/26 05:48:43;;;;;;;19.57;10.17;;;14.70;99.90;;;;;;5028175;28;20179;-73
2022/05/26 05:51:27;;;;;;;21.57;10.40;;;14.80;99.90;;;;;;5028776;28;20192;-72
2022/05/26 05:54:11;;;;;;;19.10;10.10;;;14.80;99.90;;;;;;5027648;28;20214;-72
2022/05/26 05:56:55;;;;;;;19.77;9.30;;;14.90;99.90;;;;;;5031094;28;20598;-72
2022/05/26 05:59:40;;;;;;;17.77;8.90;;;15.00;99.90;;;;;;5029473;28;20235;-72
2022/05/26 06:02:24;;;;;;;16.80;8.43;;;15.00;99.90;;;;;;5030015;28;20223;-73
2022/05/26 06:05:09;;;;;;;15.40;8.63;;;15.00;99.90;;;;;;5034162;28;20245;-72
2022/05/26 06:07:53;;;;;;;19.20;8.33;;;15.00;99.90;;;;;;5036607;28;20178;-73
2022/05/26 06:10:37;;;;;;;18.97;9.00;;;15.10;99.90;;;;;;5037963;28;20219;-73
2022/05/26 06:13:21;;;;;;;16.00;7.87;;;15.20;99.90;;;;;;5038341;28;20187;-72
2022/05/26 06:16:05;;;;;;;15.33;7.33;;;15.20;99.90;;;;;;5031617;28;20214;-72
2022/05/26 06:18:50;;;;;;;13.37;6.93;;;15.20;99.90;;;;;;5030590;28;20210;-72
2022/05/26 06:21:37;;;;;;;14.27;5.17;;;15.30;99.90;;;;;;5026966;28;20215;-71
2022/05/26 06:24:25;;;;;;;15.23;5.33;;;15.30;99.90;;;;;;5026343;28;20218;-72
2022/05/26 06:30:17;;;;;;;16.77;5.03;;;15.40;99.90;;;;;;5025650;28;20250;-73
2022/05/26 06:39:16;;;;;;;10.47;4.00;;;15.60;99.90;;;;;;5028781;28;20262;-72
2022/05/26 06:42:05;;;;;;;11.60;4.13;;;15.70;99.90;;;;;;5016924;28;20219;-71
2022/05/26 06:44:51;;;;;;;10.67;4.60;;;15.60;99.90;;;;;;5031836;28;20242;-72
2022/05/26 06:47:36;;;;;;;10.10;3.87;;;15.60;99.90;;;;;;5028045;28;20187;-73
2022/05/26 06:50:20;;;;;;;9.03;3.83;;;15.70;99.90;;;;;;5028662;28;20681;-72
2022/05/26 06:53:04;;;;;;;8.83;3.80;;;15.80;99.90;;;;;;5031972;28;20697;-72
2022/05/26 06:55:48;;;;;;;9.30;3.73;;;15.90;99.90;;;;;;5020588;28;20247;-73
2022/05/26 06:58:32;;;;;;;10.67;3.50;;;15.90;99.90;;;;;;5024451;28;20206;-73
2022/05/26 07:01:17;;;;;;;8.37;2.60;;;15.90;99.90;;;;;;5030423;28;20250;-72
2022/05/26 07:04:01;;;;;;;10.57;3.00;;;16.00;99.90;;;;;;5020800;28;20242;-73
2022/05/26 07:06:53;;;;;;;9.33;2.93;;;15.90;99.90;;;;;;5016700;28;20222;-72
2022/05/26 07:09:37;;;;;;;6.57;2.60;;;15.90;99.90;;;;;;5015147;28;20277;-72
2022/05/26 07:12:23;;;;;;;7.63;2.60;;;16.00;99.90;;;;;;5017773;28;20191;-71
2022/05/26 07:15:08;;;;;;;9.03;3.00;;;15.90;99.90;;;;;;5023473;28;20203;-72
2022/05/26 07:17:52;;;;;;;7.93;2.87;;;15.90;99.90;;;;;;5031052;28;20222;-71
2022/05/26 07:20:37;;;;;;;7.37;2.40;;;16.00;99.90;;;;;;5028309;28;20841;-72
2022/05/26 07:23:22;;;;;;;7.97;2.27;;;16.00;99.90;;;;;;5029334;28;20262;-72
2022/05/26 07:26:08;;;;;;;8.87;2.30;;;16.00;99.90;;;;;;5022340;28;20187;-71
2022/05/26 07:28:53;;;;;;;6.17;2.20;;;16.10;99.90;;;;;;5022529;28;20319;-72
2022/05/26 07:31:37;;;;;;;8.50;2.40;;;16.10;99.90;;;;;;5027756;28;20573;-73
2022/05/26 07:34:21;;;;;;;6.27;2.17;;;16.20;99.90;;;;;;5021264;28;20271;-73
2022/05/26 07:43:12;;;;;;;10.97;2.10;;;16.30;99.90;;;;;;5021294;28;20207;-72
2022/05/26 07:45:56;;;;;;;8.20;1.80;;;16.30;99.90;;;;;;5025491;28;20671;-72
2022/05/26 07:48:41;;;;;;;7.40;1.60;;;16.40;99.90;;;;;;5020718;28;20238;-71
2022/05/26 07:51:25;;;;;;;7.23;1.70;;;16.40;99.90;;;;;;5029184;28;20258;-72
2022/05/26 07:54:09;;;;;;;8.03;1.73;;;16.50;99.90;;;;;;5024597;28;20215;-72
2022/05/26 07:56:53;;;;;;;6.67;1.60;;;16.50;99.90;;;;;;5025902;28;20200;-72
2022/05/26 07:59:37;;;;;;;3.80;0.93;;;16.40;99.90;;;;;;5024387;28;20253;-71
2022/05/26 08:02:21;;;;;;;3.03;0.70;;;16.40;99.90;;;;;;5027870;28;20234;-73
2022/05/26 08:05:06;;;;;;;3.50;0.73;;;16.40;99.90;;;;;;5021953;28;20198;-72
2022/05/26 08:07:50;;;;;;;3.43;0.90;;;16.50;99.90;;;;;;5025877;28;20311;-72
2022/05/26 08:10:34;;;;;;;4.03;1.43;;;16.50;99.90;;;;;;5027245;28;20742;-72
2022/05/26 08:13:19;;;;;;;6.90;1.87;;;16.60;99.90;;;;;;5026438;28;20237;-72
2022/05/26 08:16:05;;;;;;;4.50;1.40;;;16.70;99.90;;;;;;5029540;28;20213;-72
2022/05/26 08:18:49;;;;;;;1.90;0.90;;;16.80;99.90;;;;;;5025956;28;20215;-72
2022/05/26 08:21:35;;;;;;;3.83;0.80;;;16.80;99.90;;;;;;5023400;28;20212;-72
2022/05/26 08:24:20;;;;;;;3.33;0.90;;;16.90;99.90;;;;;;5024669;28;20218;-72
2022/05/26 08:27:04;;;;;;;5.47;1.07;;;16.90;99.90;;;;;;5019587;28;20220;-72
2022/05/26 08:29:49;;;;;;;3.23;0.80;;;16.90;99.90;;;;;;5022440;28;20235;-72
2022/05/26 08:32:34;;;;;;;5.17;1.03;;;17.00;99.90;;;;;;5023434;28;20264;-72
2022/05/26 08:35:19;;;;;;;6.77;1.90;;;17.00;99.90;;;;;;5027275;28;20199;-72
2022/05/26 08:38:03;;;;;;;2.23;0.70;;;17.10;99.90;;;;;;5036908;28;20227;-72
2022/05/26 08:40:51;;;;;;;4.37;0.80;;;17.20;99.90;;;;;;5042911;28;20207;-72
2022/05/26 08:43:43;;;;;;;5.93;1.20;;;17.20;99.90;;;;;;5022822;28;20227;-71
2022/05/26 08:47:04;;;;;;;5.63;1.30;;;17.30;99.90;;;;;;5028895;28;20191;-72
2022/05/26 08:50:07;;;;;;;4.30;1.67;;;17.30;99.90;;;;;;5022003;28;20350;-72
2022/05/26 08:53:10;;;;;;;4.20;1.07;;;17.30;99.90;;;;;;5031365;28;20207;-72
2022/05/26 08:55:55;;;;;;;3.17;0.70;;;17.40;99.90;;;;;;5032301;28;20187;-72
2022/05/26 08:58:46;;;;;;;2.93;0.73;;;17.40;99.90;;;;;;5029432;28;20222;-71
2022/05/26 09:01:32;;;;;;;4.70;1.10;;;17.30;99.90;;;;;;5028213;28;20211;-71
2022/05/26 09:04:16;;;;;;;5.57;1.10;;;17.30;99.90;;;;;;5029927;28;20187;-72
2022/05/26 09:13:20;;;;;;;3.93;0.73;;;17.30;99.90;;;;;;5020984;28;20188;-72
2022/05/26 09:16:07;;;;;;;2.03;0.63;;;17.20;99.90;;;;;;5030986;28;20230;-71
2022/05/26 09:19:13;;;;;;;1.43;0.50;;;17.20;99.90;;;;;;5023750;28;20242;-71
2022/05/26 09:21:57;;;;;;;3.07;0.70;;;17.20;99.90;;;;;;5027526;28;20210;-72
2022/05/26 09:24:41;;;;;;;2.43;0.70;;;17.20;99.90;;;;;;5030889;28;20214;-72
2022/05/26 09:27:30;;;;;;;6.30;1.10;;;17.20;99.90;;;;;;5031179;28;20694;-73
2022/05/26 09:30:30;;;;;;;2.40;0.80;;;17.20;99.90;;;;;;5032095;28;20234;-72
2022/05/26 09:33:30;;;;;;;3.03;0.83;;;17.20;99.90;;;;;;5021640;28;20194;-72
2022/05/26 09:36:48;;;;;;;3.37;1.20;;;17.20;99.90;;;;;;5024172;28;20192;-72
2022/05/26 09:39:42;;;;;;;1.47;0.53;;;17.30;99.90;;;;;;5006902;28;20218;-72
2022/05/26 09:42:28;;;;;;;6.40;0.73;;;17.30;99.90;;;;;;5024599;28;20202;-72
2022/05/26 09:45:16;;;;;;;8.30;2.70;;;17.40;99.90;;;;;;5022884;28;20218;-71
2022/05/26 09:48:01;;;;;;;2.77;0.70;;;17.50;99.90;;;;;;5029357;28;20266;-72
2022/05/26 09:50:52;;;;;;;2.90;0.83;;;17.50;99.90;;;;;;5029942;28;20222;-72
2022/05/26 09:53:40;;;;;;;3.43;0.70;;;17.60;99.90;;;;;;5034025;28;20187;-73
2022/05/26 09:56:41;;;;;;;3.13;0.70;;;17.60;99.90;;;;;;5025623;28;20283;-72
2022/05/26 09:59:32;;;;;;;1.50;0.70;;;17.60;99.90;;;;;;5027093;28;20258;-72
2022/05/26 10:02:39;;;;;;;3.30;0.80;;;17.60;99.90;;;;;;5033558;28;20212;-72
2022/05/26 10:05:32;;;;;;;1.70;0.80;;;17.70;99.90;;;;;;5030567;28;20206;-72
2022/05/26 10:08:29;;;;;;;2.07;0.70;;;17.70;99.90;;;;;;5041582;28;20202;-71
2022/05/26 10:11:36;;;;;;;2.97;0.80;;;17.70;99.90;;;;;;5043834;28;20217;-72
2022/05/26 10:14:26;;;;;;;2.57;0.80;;;17.70;99.90;;;;;;5043875;28;20203;-72
2022/05/26 10:17:45;;;;;;;1.97;0.80;;;17.60;99.90;;;;;;5034412;28;20206;-72
2022/05/26 10:20:42;;;;;;;3.83;0.70;;;17.70;99.90;;;;;;5034519;28;20216;-71
2022/05/26 10:23:55;;;;;;;2.90;0.80;;;17.70;99.90;;;;;;5014613;28;20251;-72
2022/05/26 10:26:54;;;;;;;2.67;1.03;;;17.80;99.90;;;;;;5022924;28;20222;-71
2022/05/26 10:29:53;;;;;;;2.97;0.50;;;17.80;99.90;;;;;;5014794;28;20231;-72
2022/05/26 10:32:54;;;;;;;4.23;0.50;;;17.80;99.90;;;;;;5041139;28;20254;-72
2022/05/26 10:35:59;;;;;;;1.30;0.50;;;17.90;99.90;;;;;;5034613;28;20221;-72
2022/05/26 10:39:12;;;;;;;4.23;0.50;;;18.00;99.90;;;;;;5029567;28;20230;-72
2022/05/26 10:42:10;;;;;;;3.63;0.43;;;18.00;99.90;;;;;;5025995;28;20208;-71
2022/05/26 10:45:15;;;;;;;1.70;0.63;;;18.10;99.90;;;;;;5027914;28;20196;-72
2022/05/26 10:48:26;;;;;;;2.83;0.73;;;18.10;99.90;;;;;;5029551;28;20674;-71
2022/05/26 10:51:18;;;;;;;1.90;0.63;;;18.20;99.90;;;;;;5029506;28;20246;-72
2022/05/26 10:54:19;;;;;;;1.43;0.47;;;18.30;99.90;;;;;;5031941;28;20560;-72
2022/05/26 10:57:47;;;;;;;1.90;0.70;;;18.40;99.90;;;;;;5031867;28;20330;-72
2022/05/26 11:00:33;;;;;;;3.33;0.60;;;18.50;99.90;;;;;;5017282;28;20234;-72
2022/05/26 11:03:27;;;;;;;3.10;0.73;;;18.50;99.90;;;;;;5034014;28;20211;-74
2022/05/26 11:06:30;;;;;;;2.23;0.60;;;18.50;99.90;;;;;;5043632;28;20229;-73
2022/05/26 11:09:36;;;;;;;1.87;0.60;;;18.60;99.90;;;;;;5048833;28;20270;-73
2022/05/26 11:12:30;;;;;;;3.47;0.70;;;18.70;99.90;;;;;;5020681;28;20231;-74
2022/05/26 11:18:35;;;;;;;1.23;0.43;;;18.80;99.90;;;;;;5025708;28;20183;-73
2022/05/26 11:21:21;;;;;;;5.18;0.68;;;19.00;99.90;;;;;;5030454;28;20279;-73
2022/05/26 11:24:09;;;;;;;1.33;0.50;;;19.10;99.90;;;;;;5027735;28;20254;-73
2022/05/26 11:27:03;;;;;;;3.72;0.60;;;19.10;99.90;;;;;;5029066;28;20222;-74
2022/05/26 11:29:56;;;;;;;2.50;0.60;;;19.20;99.90;;;;;;5027526;28;20272;-73
2022/05/26 11:36:21;;;;;;;5.43;0.57;;;19.20;99.90;;;;;;5016892;28;20196;-73
2022/05/26 11:39:16;;;;;;;5.18;0.63;;;19.20;99.90;;;;;;5041461;28;20215;-74
2022/05/26 11:42:02;;;;;;;1.80;0.55;;;19.30;99.90;;;;;;5018661;28;20219;-73
2022/05/26 11:45:14;;;;;;;3.78;0.60;;;19.30;99.90;;;;;;5030266;28;20227;-73
2022/05/26 11:48:06;;;;;;;1.27;0.40;;;19.40;99.90;;;;;;5031178;28;20249;-73
2022/05/26 11:50:55;;;;;;;2.40;0.73;;;19.40;99.90;;;;;;5025206;28;20718;-73
2022/05/26 11:53:43;;;;;;;2.03;0.68;;;19.50;99.90;;;;;;5027279;28;20231;-74
2022/05/26 11:56:29;;;;;;;1.50;0.55;;;19.60;99.90;;;;;;5030433;28;20218;-74
2022/05/26 11:59:20;;;;;;;3.45;0.55;;;19.70;99.90;;;;;;5022443;28;20215;-73
2022/05/26 12:02:07;;;;;;;3.00;0.95;;;19.70;99.90;;;;;;5031075;28;20211;-74
2022/05/26 12:04:51;;;;;;;1.52;0.77;;;19.70;99.90;;;;;;5029942;28;20187;-74
2022/05/26 12:07:39;;;;;;;1.85;0.80;;;19.70;99.90;;;;;;5025387;28;20179;-73
2022/05/26 12:10:27;;;;;;;6.90;0.93;;;19.70;99.90;;;;;;5036411;28;20211;-75
2022/05/26 12:13:25;;;;;;;5.63;0.73;;;19.70;99.90;;;;;;5036443;28;20192;-74
2022/05/26 12:16:22;;;;;;;4.75;0.55;;;19.60;99.90;;;;;;5035854;28;20223;-75
2022/05/26 12:19:10;;;;;;;2.97;0.63;;;19.40;99.90;;;;;;5032886;28;20199;-76
2022/05/26 12:22:19;;;;;;;3.78;0.70;;;19.30;99.90;;;;;;5033663;28;20203;-75
2022/05/26 12:25:28;;;;;;;4.30;0.55;;;19.20;99.90;;;;;;5023421;28;20703;-74
2022/05/26 12:28:26;;;;;;;1.27;0.40;;;19.20;99.90;;;;;;5035104;28;20180;-74
2022/05/26 12:31:10;;;;;;;4.93;0.73;;;19.20;99.90;;;;;;5031912;28;20218;-75
2022/05/26 12:34:16;;;;;;;2.17;0.77;;;19.20;99.90;;;;;;5049430;28;20194;-75
2022/05/26 12:37:02;;;;;;;3.13;0.55;;;19.10;99.90;;;;;;5033602;28;20694;-75
2022/05/26 12:40:10;;;;;;;2.65;0.65;;;19.20;99.90;;;;;;5024796;28;20586;-75
2022/05/26 12:43:21;;;;;;;5.75;1.70;;;19.20;99.90;;;;;;5029448;28;20263;-75
2022/05/26 12:46:27;;;;;;;3.90;0.73;;;19.20;99.90;;;;;;5032589;28;20195;-75
2022/05/26 12:49:31;;;;;;;3.83;0.95;;;19.20;99.90;;;;;;5030638;28;20250;-75
2022/05/26 12:52:19;;;;;;;4.60;0.88;;;19.20;99.90;;;;;;5026035;28;20194;-75
2022/05/26 12:55:27;;;;;;;2.97;0.80;;;19.30;99.90;;;;;;5030499;28;20255;-74
2022/05/26 12:58:44;;;;;;;5.40;1.02;;;19.20;99.90;;;;;;5029765;28;20191;-75
2022/05/26 13:01:30;;;;;;;3.33;0.80;;;19.20;99.90;;;;;;5027691;28;20204;-75
2022/05/26 13:04:32;;;;;;;3.40;0.68;;;19.20;99.90;;;;;;5031779;28;20247;-75
2022/05/26 13:07:18;;;;;;;2.90;0.80;;;19.20;99.90;;;;;;5034313;28;20211;-74
2022/05/26 13:10:04;;;;;;;4.35;0.98;;;19.20;99.90;;;;;;5033979;28;20278;-74
2022/05/26 13:12:48;;;;;;;1.67;0.75;;;19.20;99.90;;;;;;5030534;28;20199;-75
2022/05/26 13:15:32;;;;;;;2.88;0.70;;;19.20;99.90;;;;;;5036233;28;20191;-76
2022/05/26 13:18:21;;;;;;;4.45;0.70;;;19.20;99.90;;;;;;5035795;28;20194;-74
2022/05/26 13:21:16;;;;;;;2.78;0.80;;;19.20;99.90;;;;;;5031324;28;20266;-74
2022/05/26 13:24:00;;;;;;;4.10;0.82;;;19.20;99.90;;;;;;5033345;28;20231;-75
2022/05/26 13:26:45;;;;;;;2.88;0.73;;;19.20;99.90;;;;;;5034458;28;20186;-75
2022/05/26 13:29:33;;;;;;;0.90;0.65;;;19.20;99.90;;;;;;5027374;28;20576;-75
2022/05/26 13:35:29;;;;;;;6.45;0.75;;;19.20;99.90;;;;;;5028868;28;20203;-75
2022/05/26 13:38:29;;;;;;;2.55;0.95;;;19.10;99.90;;;;;;5029319;28;20335;-75
2022/05/26 13:41:26;;;;;;;1.13;0.85;;;19.00;99.90;;;;;;5028608;28;20194;-75
2022/05/26 13:44:38;;;;;;;4.03;0.80;;;19.00;99.90;;;;;;5032244;28;20212;-76
2022/05/26 13:47:22;;;;;;;1.80;0.75;;;19.00;99.90;;;;;;5031609;28;20694;-74
2022/05/26 13:50:08;;;;;;;3.43;0.73;;;19.00;99.90;;;;;;5029482;28;20640;-74
2022/05/26 13:52:54;;;;;;;4.20;1.00;;;18.90;99.90;;;;;;5032715;28;20187;-75
2022/05/26 13:55:44;;;;;;;1.38;0.65;;;19.00;99.90;;;;;;5034393;28;20230;-74
2022/05/26 13:58:28;;;;;;;6.80;1.35;;;19.00;99.90;;;;;;5024512;28;20211;-74
2022/05/26 14:01:13;;;;;;;2.70;1.00;;;19.00;99.90;;;;;;5028139;28;20192;-75
2022/05/26 14:04:00;;;;;;;5.03;1.25;;;19.00;99.90;;;;;;5030593;28;20255;-75
2022/05/26 14:06:44;;;;;;;3.85;1.25;;;19.00;99.90;;;;;;5031864;28;20250;-74
2022/05/26 14:09:34;;;;;;;1.92;0.88;;;18.90;99.90;;;;;;5031385;28;20262;-75
2022/05/26 14:12:27;;;;;;;3.83;1.00;;;18.90;99.90;;;;;;5030896;28;20234;-75
2022/05/26 14:15:11;;;;;;;5.10;1.08;;;18.90;99.90;;;;;;5027893;28;20631;-75
2022/05/26 14:17:58;;;;;;;1.93;1.00;;;18.90;99.90;;;;;;5030680;28;20200;-73
2022/05/26 14:20:42;;;;;;;3.47;1.10;;;18.90;99.90;;;;;;5034492;28;20242;-76
2022/05/26 14:23:28;;;;;;;2.92;0.82;;;18.90;99.90;;;;;;5026313;28;20207;-75
2022/05/26 14:26:29;;;;;;;5.20;1.08;;;18.90;99.90;;;;;;5032268;28;20674;-75
2022/05/26 14:29:16;;;;;;;2.95;1.35;;;18.90;99.90;;;;;;5033746;28;20215;-75
2022/05/26 14:32:09;;;;;;;2.83;1.08;;;18.90;99.90;;;;;;5030277;28;20200;-76
2022/05/26 14:34:54;;;;;;;6.50;1.05;;;19.00;99.90;;;;;;5032065;28;20203;-75
2022/05/26 14:37:38;;;;;;;6.13;1.00;;;19.00;99.90;;;;;;5033193;28;20238;-74
2022/05/26 14:40:23;;;;;;;6.68;1.23;;;18.90;99.90;;;;;;5031230;28;20238;-75
2022/05/26 14:43:08;;;;;;;3.95;1.08;;;18.90;99.90;;;;;;5030096;28;20219;-74
2022/05/26 14:45:53;;;;;;;3.63;0.90;;;18.90;99.90;;;;;;5032650;28;20346;-75
2022/05/26 14:48:37;;;;;;;2.58;0.88;;;18.90;99.90;;;;;;5035442;28;20705;-74
2022/05/26 14:51:30;;;;;;;3.72;0.88;;;18.90;99.90;;;;;;5028431;28;20223;-75
2022/05/26 14:57:20;;;;;;;3.50;1.02;;;18.80;99.90;;;;;;5036011;28;20191;-75
2022/05/26 15:00:16;;;;;;;3.03;1.33;;;18.80;99.90;;;;;;5028168;28;20239;-75
2022/05/26 15:03:00;;;;;;;3.85;1.20;;;18.80;99.90;;;;;;5033718;28;20266;-76
2022/05/26 15:05:45;;;;;;;3.65;1.27;;;18.80;99.90;;;;;;5025652;28;20237;-76
2022/05/26 15:08:41;;;;;;;5.30;1.55;;;18.80;99.90;;;;;;5027994;28;20276;-75
2022/05/26 15:11:25;;;;;;;3.40;1.60;;;18.70;99.90;;;;;;5030967;28;20215;-75
2022/05/26 15:14:10;;;;;;;3.55;1.42;;;18.70;99.90;;;;;;5030695;28;20243;-75
2022/05/26 15:16:58;;;;;;;2.08;1.15;;;18.60;99.90;;;;;;5043776;28;20222;-77
2022/05/26 15:19:51;;;;;;;3.67;1.10;;;18.60;99.90;;;;;;5055691;28;20203;-75
2022/05/26 15:22:37;;;;;;;5.57;1.40;;;18.60;99.90;;;;;;5034034;28;20211;-75
2022/05/26 15:25:22;;;;;;;4.77;1.57;;;18.60;99.90;;;;;;5032976;28;20175;-74